sensor_id;sensor_type;location;lat;lon;timestamp;temperature;humidity
23544;DHT22;11950;51.230;4.012;2023-04-24T00:00:57;12.20;99.90
23544;DHT22;11950;51.230;4.012;2023-04-24T00:03:24;12.20;99.90
23544;DHT22;11950;51.230;4.012;2023-04-24T00:05:51;12.20;99.90
23544;DHT22;11950;51.230;4.012;2023-04-24T00:08:18;12.20;99.90
23544;DHT22;11950;51.230;4.012;2023-04-24T00:10:44;12.20;99.90
23544;DHT22;11950;51.230;4.012;2023-04-24T00:13:10;12.20;99.90
23544;DHT22;11950;51.230;4.012;2023-04-24T00:15:37;12.20;99.90
23544;DHT22;11950;51.230;4.012;2023-04-24T00:18:03;12.20;99.90
23544;DHT22;11950;51.230;4.012;2023-04-24T00:20:29;12.10;99.90
23544;DHT22;11950;51.230;4.012;2023-04-24T00:22:58;12.10;99.90
23544;DHT22;11950;51.230;4.012;2023-04-24T00:25:24;12.10;99.90
23544;DHT22;11950;51.230;4.012;2023-04-24T00:27:50;12.00;99.90
23544;DHT22;11950;51.230;4.012;2023-04-24T00:30:17;12.10;99.90
23544;DHT22;11950;51.230;4.012;2023-04-24T00:32:43;12.10;99.90
23544;DHT22;11950;51.230;4.012;2023-04-24T00:35:09;12.00;99.90
23544;DHT22;11950;51.230;4.012;2023-04-24T00:37:36;12.00;99.90
23544;DHT22;11950;51.230;4.012;2023-04-24T00:40:03;12.00;99.90
23544;DHT22;11950;51.230;4.012;2023-04-24T00:42:29;12.00;99.90
23544;DHT22;11950;51.230;4.012;2023-04-24T00:44:56;11.90;99.90
23544;DHT22;11950;51.230;4.012;2023-04-24T00:47:22;11.90;99.90
23544;DHT22;11950;51.230;4.012;2023-04-24T00:49:49;11.90;99.90
23544;DHT22;11950;51.230;4.012;2023-04-24T00:52:16;11.90;99.90
23544;DHT22;11950;51.230;4.012;2023-04-24T00:54:44;11.90;99.90
23544;DHT22;11950;51.230;4.012;2023-04-24T00:57:14;11.90;99.90
23544;DHT22;11950;51.230;4.012;2023-04-24T00:59:43;11.90;99.90
23544;DHT22;11950;51.230;4.012;2023-04-24T01:02:11;11.90;99.90
23544;DHT22;11950;51.230;4.012;2023-04-24T01:04:37;11.90;99.90
23544;DHT22;11950;51.230;4.012;2023-04-24T01:07:05;11.90;99.90
23544;DHT22;11950;51.230;4.012;2023-04-24T01:09:40;11.90;99.90
23544;DHT22;11950;51.230;4.012;2023-04-24T01:12:09;11.80;99.90
23544;DHT22;11950;51.230;4.012;2023-04-24T01:14:37;11.80;99.90
23544;DHT22;11950;51.230;4.012;2023-04-24T01:17:04;11.80;99.90
23544;DHT22;11950;51.230;4.012;2023-04-24T01:19:30;11.80;99.90
23544;DHT22;11950;51.230;4.012;2023-04-24T01:21:59;11.80;99.90
23544;DHT22;11950;51.230;4.012;2023-04-24T01:24:29;11.80;99.90
23544;DHT22;11950;51.230;4.012;2023-04-24T01:26:56;11.80;99.90
23544;DHT22;11950;51.230;4.012;2023-04-24T01:29:22;11.80;99.90
23544;DHT22;11950;51.230;4.012;2023-04-24T01:31:50;11.70;99.90
23544;DHT22;11950;51.230;4.012;2023-04-24T01:34:16;11.80;99.90
23544;DHT22;11950;51.230;4.012;2023-04-24T01:36:43;11.80;99.90
23544;DHT22;11950;51.230;4.012;2023-04-24T01:39:12;11.80;99.90
23544;DHT22;11950;51.230;4.012;2023-04-24T01:41:38;11.80;99.90
23544;DHT22;11950;51.230;4.012;2023-04-24T01:44:05;11.80;99.90
23544;DHT22;11950;51.230;4.012;2023-04-24T01:46:31;11.80;99.90
23544;DHT22;11950;51.230;4.012;2023-04-24T01:48:59;11.80;99.90
23544;DHT22;11950;51.230;4.012;2023-04-24T01:51:26;11.80;99.90
23544;DHT22;11950;51.230;4.012;2023-04-24T01:53:53;11.70;99.90
23544;DHT22;11950;51.230;4.012;2023-04-24T01:56:22;11.80;99.90
23544;DHT22;11950;51.230;4.012;2023-04-24T01:58:53;11.70;99.90
23544;DHT22;11950;51.230;4.012;2023-04-24T02:01:21;11.70;99.90
23544;DHT22;11950;51.230;4.012;2023-04-24T02:03:47;11.70;99.90
23544;DHT22;11950;51.230;4.012;2023-04-24T02:06:14;11.70;99.90
23544;DHT22;11950;51.230;4.012;2023-04-24T02:08:40;11.70;99.90
23544;DHT22;11950;51.230;4.012;2023-04-24T02:11:09;11.70;99.90
23544;DHT22;11950;51.230;4.012;2023-04-24T02:13:35;11.70;99.90
23544;DHT22;11950;51.230;4.012;2023-04-24T02:16:01;11.70;99.90
23544;DHT22;11950;51.230;4.012;2023-04-24T02:18:29;11.60;99.90
23544;DHT22;11950;51.230;4.012;2023-04-24T02:20:57;11.60;99.90
23544;DHT22;11950;51.230;4.012;2023-04-24T02:23:23;11.60;99.90
23544;DHT22;11950;51.230;4.012;2023-04-24T02:25:49;11.60;99.90
23544;DHT22;11950;51.230;4.012;2023-04-24T02:28:17;11.60;99.90
23544;DHT22;11950;51.230;4.012;2023-04-24T02:30:43;11.60;99.90
23544;DHT22;11950;51.230;4.012;2023-04-24T02:33:09;11.60;99.90
23544;DHT22;11950;51.230;4.012;2023-04-24T02:35:36;11.60;99.90
23544;DHT22;11950;51.230;4.012;2023-04-24T02:38:02;11.60;99.90
23544;DHT22;11950;51.230;4.012;2023-04-24T02:40:29;11.60;99.90
23544;DHT22;11950;51.230;4.012;2023-04-24T02:42:55;11.60;99.90
23544;DHT22;11950;51.230;4.012;2023-04-24T02:45:24;11.60;99.90
23544;DHT22;11950;51.230;4.012;2023-04-24T02:47:50;11.60;99.90
23544;DHT22;11950;51.230;4.012;2023-04-24T02:50:16;11.60;99.90
23544;DHT22;11950;51.230;4.012;2023-04-24T02:52:42;11.60;99.90
23544;DHT22;11950;51.230;4.012;2023-04-24T02:55:09;11.60;99.90
23544;DHT22;11950;51.230;4.012;2023-04-24T02:57:35;11.60;99.90
23544;DHT22;11950;51.230;4.012;2023-04-24T03:00:02;11.60;99.90
23544;DHT22;11950;51.230;4.012;2023-04-24T03:02:29;11.60;99.90
23544;DHT22;11950;51.230;4.012;2023-04-24T03:04:55;11.50;99.90
23544;DHT22;11950;51.230;4.012;2023-04-24T03:07:23;11.50;99.90
23544;DHT22;11950;51.230;4.012;2023-04-24T03:09:50;11.50;99.90
23544;DHT22;11950;51.230;4.012;2023-04-24T03:12:16;11.50;99.90
23544;DHT22;11950;51.230;4.012;2023-04-24T03:14:44;11.50;99.90
23544;DHT22;11950;51.230;4.012;2023-04-24T03:17:10;11.50;99.90
23544;DHT22;11950;51.230;4.012;2023-04-24T03:19:36;11.50;99.90
23544;DHT22;11950;51.230;4.012;2023-04-24T03:22:08;11.40;99.90
23544;DHT22;11950;51.230;4.012;2023-04-24T03:24:36;11.40;99.90
23544;DHT22;11950;51.230;4.012;2023-04-24T03:27:03;11.40;99.90
23544;DHT22;11950;51.230;4.012;2023-04-24T03:29:48;11.40;99.90
23544;DHT22;11950;51.230;4.012;2023-04-24T03:32:18;11.40;99.90
23544;DHT22;11950;51.230;4.012;2023-04-24T03:34:46;11.40;99.90
23544;DHT22;11950;51.230;4.012;2023-04-24T03:37:15;11.30;99.90
23544;DHT22;11950;51.230;4.012;2023-04-24T03:39:47;11.30;99.90
23544;DHT22;11950;51.230;4.012;2023-04-24T03:42:16;11.30;99.90
23544;DHT22;11950;51.230;4.012;2023-04-24T03:44:50;11.30;99.90
23544;DHT22;11950;51.230;4.012;2023-04-24T03:47:17;11.30;99.90
23544;DHT22;11950;51.230;4.012;2023-04-24T03:49:44;11.30;99.90
23544;DHT22;11950;51.230;4.012;2023-04-24T03:52:11;11.20;99.90
23544;DHT22;11950;51.230;4.012;2023-04-24T03:54:38;11.20;99.90
23544;DHT22;11950;51.230;4.012;2023-04-24T03:57:05;11.30;99.90
23544;DHT22;11950;51.230;4.012;2023-04-24T03:59:33;11.30;99.90
23544;DHT22;11950;51.230;4.012;2023-04-24T04:02:18;11.20;99.90
23544;DHT22;11950;51.230;4.012;2023-04-24T04:04:45;11.20;99.90
23544;DHT22;11950;51.230;4.012;2023-04-24T04:07:11;11.20;99.90
23544;DHT22;11950;51.230;4.012;2023-04-24T04:09:39;11.20;99.90
23544;DHT22;11950;51.230;4.012;2023-04-24T04:12:05;11.20;99.90
23544;DHT22;11950;51.230;4.012;2023-04-24T04:14:33;11.20;99.90
23544;DHT22;11950;51.230;4.012;2023-04-24T04:16:59;11.20;99.90
23544;DHT22;11950;51.230;4.012;2023-04-24T04:19:26;11.20;99.90
23544;DHT22;11950;51.230;4.012;2023-04-24T04:21:53;11.10;99.90
23544;DHT22;11950;51.230;4.012;2023-04-24T04:24:37;11.00;99.90
23544;DHT22;11950;51.230;4.012;2023-04-24T04:27:07;11.00;99.90
23544;DHT22;11950;51.230;4.012;2023-04-24T04:30:03;11.00;99.90
23544;DHT22;11950;51.230;4.012;2023-04-24T04:32:40;11.00;99.90
23544;DHT22;11950;51.230;4.012;2023-04-24T04:35:07;11.00;99.90
23544;DHT22;11950;51.230;4.012;2023-04-24T04:37:35;11.00;99.90
23544;DHT22;11950;51.230;4.012;2023-04-24T04:40:20;11.00;99.90
23544;DHT22;11950;51.230;4.012;2023-04-24T04:42:56;10.90;99.90
23544;DHT22;11950;51.230;4.012;2023-04-24T04:45:24;10.90;99.90
23544;DHT22;11950;51.230;4.012;2023-04-24T04:48:12;11.00;99.90
23544;DHT22;11950;51.230;4.012;2023-04-24T04:50:40;10.90;99.90
23544;DHT22;11950;51.230;4.012;2023-04-24T04:53:07;10.90;99.90
23544;DHT22;11950;51.230;4.012;2023-04-24T04:55:37;10.90;99.90
23544;DHT22;11950;51.230;4.012;2023-04-24T04:58:09;10.90;99.90
23544;DHT22;11950;51.230;4.012;2023-04-24T05:00:36;10.90;99.90
23544;DHT22;11950;51.230;4.012;2023-04-24T05:03:11;10.80;99.90
23544;DHT22;11950;51.230;4.012;2023-04-24T05:05:37;10.80;99.90
23544;DHT22;11950;51.230;4.012;2023-04-24T05:08:08;10.80;99.90
23544;DHT22;11950;51.230;4.012;2023-04-24T05:10:35;10.90;99.90
23544;DHT22;11950;51.230;4.012;2023-04-24T05:13:03;10.80;99.90
23544;DHT22;11950;51.230;4.012;2023-04-24T05:15:31;10.90;99.90
23544;DHT22;11950;51.230;4.012;2023-04-24T05:17:59;10.80;99.90
23544;DHT22;11950;51.230;4.012;2023-04-24T05:20:27;10.90;99.90
23544;DHT22;11950;51.230;4.012;2023-04-24T05:22:54;10.90;99.90
23544;DHT22;11950;51.230;4.012;2023-04-24T05:25:22;10.90;99.90
23544;DHT22;11950;51.230;4.012;2023-04-24T05:27:54;10.90;99.90
23544;DHT22;11950;51.230;4.012;2023-04-24T05:30:20;10.90;99.90
23544;DHT22;11950;51.230;4.012;2023-04-24T05:32:47;10.90;99.90
23544;DHT22;11950;51.230;4.012;2023-04-24T05:35:13;10.90;99.90
23544;DHT22;11950;51.230;4.012;2023-04-24T05:37:40;10.90;99.90
23544;DHT22;11950;51.230;4.012;2023-04-24T05:40:09;10.80;99.90
23544;DHT22;11950;51.230;4.012;2023-04-24T05:42:36;10.90;99.90
23544;DHT22;11950;51.230;4.012;2023-04-24T05:45:02;10.90;99.90
23544;DHT22;11950;51.230;4.012;2023-04-24T05:47:29;10.90;99.90
23544;DHT22;11950;51.230;4.012;2023-04-24T05:49:55;10.90;99.90
23544;DHT22;11950;51.230;4.012;2023-04-24T05:52:21;10.90;99.90
23544;DHT22;11950;51.230;4.012;2023-04-24T05:54:49;11.00;99.90
23544;DHT22;11950;51.230;4.012;2023-04-24T05:57:20;11.00;99.90
23544;DHT22;11950;51.230;4.012;2023-04-24T05:59:53;11.00;99.90
23544;DHT22;11950;51.230;4.012;2023-04-24T06:02:21;11.00;99.90
23544;DHT22;11950;51.230;4.012;2023-04-24T06:04:48;11.00;99.90
23544;DHT22;11950;51.230;4.012;2023-04-24T06:07:14;11.00;99.90
23544;DHT22;11950;51.230;4.012;2023-04-24T06:09:43;11.00;99.90
23544;DHT22;11950;51.230;4.012;2023-04-24T06:12:09;11.10;99.90
23544;DHT22;11950;51.230;4.012;2023-04-24T06:14:49;11.10;99.90
23544;DHT22;11950;51.230;4.012;2023-04-24T06:17:19;11.10;99.90
23544;DHT22;11950;51.230;4.012;2023-04-24T06:19:47;11.10;99.90
23544;DHT22;11950;51.230;4.012;2023-04-24T06:22:14;11.10;99.90
23544;DHT22;11950;51.230;4.012;2023-04-24T06:24:41;11.10;99.90
23544;DHT22;11950;51.230;4.012;2023-04-24T06:27:07;11.10;99.90
23544;DHT22;11950;51.230;4.012;2023-04-24T06:29:33;11.10;99.90
23544;DHT22;11950;51.230;4.012;2023-04-24T06:32:00;11.00;99.90
23544;DHT22;11950;51.230;4.012;2023-04-24T06:34:26;11.00;99.90
23544;DHT22;11950;51.230;4.012;2023-04-24T06:36:53;10.90;99.90
23544;DHT22;11950;51.230;4.012;2023-04-24T06:39:20;10.90;99.90
23544;DHT22;11950;51.230;4.012;2023-04-24T06:41:46;11.00;99.90
23544;DHT22;11950;51.230;4.012;2023-04-24T06:44:19;10.90;99.90
23544;DHT22;11950;51.230;4.012;2023-04-24T06:46:45;11.00;99.90
23544;DHT22;11950;51.230;4.012;2023-04-24T06:49:11;11.00;99.90
23544;DHT22;11950;51.230;4.012;2023-04-24T06:51:38;11.00;99.90
23544;DHT22;11950;51.230;4.012;2023-04-24T06:54:04;11.10;99.90
23544;DHT22;11950;51.230;4.012;2023-04-24T06:56:30;11.10;99.90
23544;DHT22;11950;51.230;4.012;2023-04-24T06:58:57;11.10;99.90
23544;DHT22;11950;51.230;4.012;2023-04-24T07:01:24;11.10;99.90
23544;DHT22;11950;51.230;4.012;2023-04-24T07:03:50;11.20;99.90
23544;DHT22;11950;51.230;4.012;2023-04-24T07:06:17;11.20;99.90
23544;DHT22;11950;51.230;4.012;2023-04-24T07:08:44;11.50;99.90
23544;DHT22;11950;51.230;4.012;2023-04-24T07:11:10;11.30;99.90
23544;DHT22;11950;51.230;4.012;2023-04-24T07:13:37;11.40;99.90
23544;DHT22;11950;51.230;4.012;2023-04-24T07:16:08;11.40;99.90
23544;DHT22;11950;51.230;4.012;2023-04-24T07:18:34;11.40;99.90
23544;DHT22;11950;51.230;4.012;2023-04-24T07:21:01;11.50;99.90
23544;DHT22;11950;51.230;4.012;2023-04-24T07:23:27;11.50;99.90
23544;DHT22;11950;51.230;4.012;2023-04-24T07:25:53;11.50;99.90
23544;DHT22;11950;51.230;4.012;2023-04-24T07:28:19;11.60;99.90
23544;DHT22;11950;51.230;4.012;2023-04-24T07:30:48;11.70;99.90
23544;DHT22;11950;51.230;4.012;2023-04-24T07:33:15;11.80;99.90
23544;DHT22;11950;51.230;4.012;2023-04-24T07:35:42;11.80;99.90
23544;DHT22;11950;51.230;4.012;2023-04-24T07:38:08;11.90;99.90
23544;DHT22;11950;51.230;4.012;2023-04-24T07:40:34;11.90;99.90
23544;DHT22;11950;51.230;4.012;2023-04-24T07:43:01;11.80;99.90
23544;DHT22;11950;51.230;4.012;2023-04-24T07:45:27;11.80;99.90
23544;DHT22;11950;51.230;4.012;2023-04-24T07:47:54;11.70;99.90
23544;DHT22;11950;51.230;4.012;2023-04-24T07:50:20;11.70;99.90
23544;DHT22;11950;51.230;4.012;2023-04-24T07:52:47;11.70;99.90
23544;DHT22;11950;51.230;4.012;2023-04-24T07:55:13;11.70;99.90
23544;DHT22;11950;51.230;4.012;2023-04-24T07:57:40;11.70;99.90
23544;DHT22;11950;51.230;4.012;2023-04-24T08:00:06;11.70;99.90
23544;DHT22;11950;51.230;4.012;2023-04-24T08:02:39;11.80;99.90
23544;DHT22;11950;51.230;4.012;2023-04-24T08:05:07;11.80;99.90
23544;DHT22;11950;51.230;4.012;2023-04-24T08:07:33;11.90;99.90
23544;DHT22;11950;51.230;4.012;2023-04-24T08:10:01;11.80;99.90
23544;DHT22;11950;51.230;4.012;2023-04-24T08:12:29;11.90;99.90
23544;DHT22;11950;51.230;4.012;2023-04-24T08:14:55;12.00;99.90
23544;DHT22;11950;51.230;4.012;2023-04-24T08:17:21;12.10;99.90
23544;DHT22;11950;51.230;4.012;2023-04-24T08:19:48;12.10;99.90
23544;DHT22;11950;51.230;4.012;2023-04-24T08:22:15;12.10;99.90
23544;DHT22;11950;51.230;4.012;2023-04-24T08:24:41;12.10;99.90
23544;DHT22;11950;51.230;4.012;2023-04-24T08:27:08;12.00;99.90
23544;DHT22;11950;51.230;4.012;2023-04-24T08:29:34;12.00;99.90
23544;DHT22;11950;51.230;4.012;2023-04-24T08:32:00;12.00;99.90
23544;DHT22;11950;51.230;4.012;2023-04-24T08:34:27;12.00;99.90
23544;DHT22;11950;51.230;4.012;2023-04-24T08:36:53;12.00;99.90
23544;DHT22;11950;51.230;4.012;2023-04-24T08:39:20;11.90;99.90
23544;DHT22;11950;51.230;4.012;2023-04-24T08:41:48;11.90;99.90
23544;DHT22;11950;51.230;4.012;2023-04-24T08:44:14;11.80;99.90
23544;DHT22;11950;51.230;4.012;2023-04-24T08:46:43;11.80;99.90
23544;DHT22;11950;51.230;4.012;2023-04-24T08:49:15;11.80;99.90
23544;DHT22;11950;51.230;4.012;2023-04-24T08:51:45;11.80;99.90
23544;DHT22;11950;51.230;4.012;2023-04-24T08:54:13;11.90;99.90
23544;DHT22;11950;51.230;4.012;2023-04-24T08:56:44;12.00;99.90
23544;DHT22;11950;51.230;4.012;2023-04-24T08:59:11;12.00;99.90
23544;DHT22;11950;51.230;4.012;2023-04-24T09:01:38;12.00;99.90
23544;DHT22;11950;51.230;4.012;2023-04-24T09:04:07;12.00;99.90
23544;DHT22;11950;51.230;4.012;2023-04-24T09:06:35;12.00;99.90
23544;DHT22;11950;51.230;4.012;2023-04-24T09:09:02;12.00;99.90
23544;DHT22;11950;51.230;4.012;2023-04-24T09:11:32;12.00;99.90
23544;DHT22;11950;51.230;4.012;2023-04-24T09:14:01;12.20;99.90
23544;DHT22;11950;51.230;4.012;2023-04-24T09:16:27;12.40;99.90
23544;DHT22;11950;51.230;4.012;2023-04-24T09:18:55;12.50;99.90
23544;DHT22;11950;51.230;4.012;2023-04-24T09:21:22;12.70;99.90
23544;DHT22;11950;51.230;4.012;2023-04-24T09:24:04;12.90;99.90
23544;DHT22;11950;51.230;4.012;2023-04-24T09:26:32;13.10;99.90
23544;DHT22;11950;51.230;4.012;2023-04-24T09:28:59;13.20;99.90
23544;DHT22;11950;51.230;4.012;2023-04-24T09:31:27;13.20;99.90
23544;DHT22;11950;51.230;4.012;2023-04-24T09:33:59;13.20;99.90
23544;DHT22;11950;51.230;4.012;2023-04-24T09:39:01;13.30;99.90
23544;DHT22;11950;51.230;4.012;2023-04-24T09:41:28;13.50;99.90
23544;DHT22;11950;51.230;4.012;2023-04-24T09:44:11;13.60;99.90
23544;DHT22;11950;51.230;4.012;2023-04-24T09:46:37;13.60;99.90
23544;DHT22;11950;51.230;4.012;2023-04-24T09:49:12;13.60;99.90
23544;DHT22;11950;51.230;4.012;2023-04-24T09:51:39;13.50;99.90
23544;DHT22;11950;51.230;4.012;2023-04-24T09:54:17;13.50;99.90
23544;DHT22;11950;51.230;4.012;2023-04-24T09:56:45;13.50;99.90
23544;DHT22;11950;51.230;4.012;2023-04-24T09:59:14;13.60;99.90
23544;DHT22;11950;51.230;4.012;2023-04-24T10:01:41;13.70;99.90
23544;DHT22;11950;51.230;4.012;2023-04-24T10:04:28;13.80;99.90
23544;DHT22;11950;51.230;4.012;2023-04-24T10:06:56;14.00;99.90
23544;DHT22;11950;51.230;4.012;2023-04-24T10:09:25;14.00;99.90
23544;DHT22;11950;51.230;4.012;2023-04-24T10:11:52;14.10;99.90
23544;DHT22;11950;51.230;4.012;2023-04-24T10:14:21;14.10;99.90
23544;DHT22;11950;51.230;4.012;2023-04-24T10:16:49;14.20;99.90
23544;DHT22;11950;51.230;4.012;2023-04-24T10:19:16;14.20;99.90
23544;DHT22;11950;51.230;4.012;2023-04-24T10:21:44;14.20;99.90
23544;DHT22;11950;51.230;4.012;2023-04-24T10:24:14;14.30;99.90
23544;DHT22;11950;51.230;4.012;2023-04-24T10:26:42;14.40;99.90
23544;DHT22;11950;51.230;4.012;2023-04-24T10:29:10;14.40;99.90
23544;DHT22;11950;51.230;4.012;2023-04-24T10:31:39;14.30;99.90
23544;DHT22;11950;51.230;4.012;2023-04-24T10:34:07;14.20;99.90
23544;DHT22;11950;51.230;4.012;2023-04-24T10:36:35;14.20;99.90
23544;DHT22;11950;51.230;4.012;2023-04-24T10:39:05;14.20;99.90
23544;DHT22;11950;51.230;4.012;2023-04-24T10:41:32;14.30;99.90
23544;DHT22;11950;51.230;4.012;2023-04-24T10:44:09;14.40;99.90
23544;DHT22;11950;51.230;4.012;2023-04-24T10:46:37;14.60;99.90
23544;DHT22;11950;51.230;4.012;2023-04-24T10:49:07;14.70;99.90
23544;DHT22;11950;51.230;4.012;2023-04-24T10:51:50;14.80;99.90
23544;DHT22;11950;51.230;4.012;2023-04-24T10:54:42;14.90;99.90
23544;DHT22;11950;51.230;4.012;2023-04-24T10:59:47;15.00;99.90
23544;DHT22;11950;51.230;4.012;2023-04-24T11:02:14;15.10;99.90
23544;DHT22;11950;51.230;4.012;2023-04-24T11:04:41;15.20;99.90
23544;DHT22;11950;51.230;4.012;2023-04-24T11:07:11;15.40;99.90
23544;DHT22;11950;51.230;4.012;2023-04-24T11:09:38;15.40;99.90
23544;DHT22;11950;51.230;4.012;2023-04-24T11:12:11;15.50;99.90
23544;DHT22;11950;51.230;4.012;2023-04-24T11:14:59;15.50;99.90
23544;DHT22;11950;51.230;4.012;2023-04-24T11:17:37;15.50;99.90
23544;DHT22;11950;51.230;4.012;2023-04-24T11:20:09;15.50;99.90
23544;DHT22;11950;51.230;4.012;2023-04-24T11:22:38;15.60;99.90
23544;DHT22;11950;51.230;4.012;2023-04-24T11:25:07;15.70;99.90
23544;DHT22;11950;51.230;4.012;2023-04-24T11:27:42;15.80;99.90
23544;DHT22;11950;51.230;4.012;2023-04-24T11:30:10;15.90;99.90
23544;DHT22;11950;51.230;4.012;2023-04-24T11:32:41;15.80;99.90
23544;DHT22;11950;51.230;4.012;2023-04-24T11:35:18;15.70;99.90
23544;DHT22;11950;51.230;4.012;2023-04-24T11:37:47;15.60;99.90
23544;DHT22;11950;51.230;4.012;2023-04-24T11:40:16;15.50;99.90
23544;DHT22;11950;51.230;4.012;2023-04-24T11:42:53;15.50;99.90
23544;DHT22;11950;51.230;4.012;2023-04-24T11:45:24;15.40;99.90
23544;DHT22;11950;51.230;4.012;2023-04-24T11:47:50;15.30;99.90
23544;DHT22;11950;51.230;4.012;2023-04-24T11:50:18;15.40;99.90
23544;DHT22;11950;51.230;4.012;2023-04-24T11:52:46;15.40;99.90
23544;DHT22;11950;51.230;4.012;2023-04-24T11:57:49;15.30;99.90
23544;DHT22;11950;51.230;4.012;2023-04-24T12:00:16;15.30;99.90
23544;DHT22;11950;51.230;4.012;2023-04-24T12:02:43;15.30;99.90
23544;DHT22;11950;51.230;4.012;2023-04-24T12:05:09;15.20;99.90
23544;DHT22;11950;51.230;4.012;2023-04-24T12:07:44;15.10;99.90
23544;DHT22;11950;51.230;4.012;2023-04-24T12:10:11;15.10;99.90
23544;DHT22;11950;51.230;4.012;2023-04-24T12:12:37;15.00;99.90
23544;DHT22;11950;51.230;4.012;2023-04-24T12:15:07;14.90;99.90
23544;DHT22;11950;51.230;4.012;2023-04-24T12:17:35;14.90;99.90
23544;DHT22;11950;51.230;4.012;2023-04-24T12:25:10;14.80;99.90
23544;DHT22;11950;51.230;4.012;2023-04-24T12:27:37;14.80;99.90
23544;DHT22;11950;51.230;4.012;2023-04-24T12:30:05;14.80;99.90
23544;DHT22;11950;51.230;4.012;2023-04-24T12:32:32;14.70;99.90
23544;DHT22;11950;51.230;4.012;2023-04-24T12:34:58;14.70;99.90
23544;DHT22;11950;51.230;4.012;2023-04-24T12:37:25;14.80;99.90
23544;DHT22;11950;51.230;4.012;2023-04-24T12:40:19;15.00;99.90
23544;DHT22;11950;51.230;4.012;2023-04-24T12:45:14;15.00;99.90
23544;DHT22;11950;51.230;4.012;2023-04-24T12:47:41;15.00;99.90
23544;DHT22;11950;51.230;4.012;2023-04-24T12:50:10;15.00;99.90
23544;DHT22;11950;51.230;4.012;2023-04-24T12:52:37;15.00;99.90
23544;DHT22;11950;51.230;4.012;2023-04-24T12:55:04;14.90;99.90
23544;DHT22;11950;51.230;4.012;2023-04-24T12:57:32;15.00;99.90
23544;DHT22;11950;51.230;4.012;2023-04-24T12:59:59;15.00;99.90
23544;DHT22;11950;51.230;4.012;2023-04-24T13:02:27;15.10;99.90
23544;DHT22;11950;51.230;4.012;2023-04-24T13:04:55;15.10;99.90
23544;DHT22;11950;51.230;4.012;2023-04-24T13:07:21;15.20;99.90
23544;DHT22;11950;51.230;4.012;2023-04-24T13:09:49;15.00;99.90
23544;DHT22;11950;51.230;4.012;2023-04-24T13:12:16;15.00;99.90
23544;DHT22;11950;51.230;4.012;2023-04-24T13:14:43;15.10;99.90
23544;DHT22;11950;51.230;4.012;2023-04-24T13:17:09;15.10;99.90
23544;DHT22;11950;51.230;4.012;2023-04-24T13:19:40;15.00;99.90
23544;DHT22;11950;51.230;4.012;2023-04-24T13:22:08;15.00;99.90
23544;DHT22;11950;51.230;4.012;2023-04-24T13:24:34;15.00;99.90
23544;DHT22;11950;51.230;4.012;2023-04-24T13:27:01;15.10;99.90
23544;DHT22;11950;51.230;4.012;2023-04-24T13:29:28;15.20;99.90
23544;DHT22;11950;51.230;4.012;2023-04-24T13:31:55;15.30;99.90
23544;DHT22;11950;51.230;4.012;2023-04-24T13:34:25;15.30;99.90
23544;DHT22;11950;51.230;4.012;2023-04-24T13:36:53;15.40;99.90
23544;DHT22;11950;51.230;4.012;2023-04-24T13:39:20;15.40;99.90
23544;DHT22;11950;51.230;4.012;2023-04-24T13:41:47;15.40;99.90
23544;DHT22;11950;51.230;4.012;2023-04-24T13:44:18;15.40;99.90
23544;DHT22;11950;51.230;4.012;2023-04-24T13:46:46;15.30;99.90
23544;DHT22;11950;51.230;4.012;2023-04-24T13:49:13;15.30;99.90
23544;DHT22;11950;51.230;4.012;2023-04-24T13:51:41;15.30;99.90
23544;DHT22;11950;51.230;4.012;2023-04-24T13:54:08;15.30;99.90
23544;DHT22;11950;51.230;4.012;2023-04-24T13:56:34;15.40;99.90
23544;DHT22;11950;51.230;4.012;2023-04-24T13:59:00;15.30;99.90
23544;DHT22;11950;51.230;4.012;2023-04-24T14:01:27;15.20;99.90
23544;DHT22;11950;51.230;4.012;2023-04-24T14:03:54;15.10;99.90
23544;DHT22;11950;51.230;4.012;2023-04-24T14:06:21;15.10;99.90
23544;DHT22;11950;51.230;4.012;2023-04-24T14:08:49;15.20;99.90
23544;DHT22;11950;51.230;4.012;2023-04-24T14:11:17;15.30;99.90
23544;DHT22;11950;51.230;4.012;2023-04-24T14:13:43;15.30;99.90
23544;DHT22;11950;51.230;4.012;2023-04-24T14:16:10;15.30;99.90
23544;DHT22;11950;51.230;4.012;2023-04-24T14:18:36;15.30;99.90
23544;DHT22;11950;51.230;4.012;2023-04-24T14:21:03;15.40;99.90
23544;DHT22;11950;51.230;4.012;2023-04-24T14:23:30;15.40;99.90
23544;DHT22;11950;51.230;4.012;2023-04-24T14:25:57;15.40;99.90
23544;DHT22;11950;51.230;4.012;2023-04-24T14:28:24;15.30;99.90
23544;DHT22;11950;51.230;4.012;2023-04-24T14:30:51;15.40;99.90
23544;DHT22;11950;51.230;4.012;2023-04-24T14:33:17;15.30;99.90
23544;DHT22;11950;51.230;4.012;2023-04-24T14:35:44;15.30;99.90
23544;DHT22;11950;51.230;4.012;2023-04-24T14:38:10;15.20;99.90
23544;DHT22;11950;51.230;4.012;2023-04-24T14:40:37;15.10;99.90
23544;DHT22;11950;51.230;4.012;2023-04-24T14:43:03;15.00;99.90
23544;DHT22;11950;51.230;4.012;2023-04-24T14:45:30;14.90;99.90
23544;DHT22;11950;51.230;4.012;2023-04-24T14:47:57;14.80;99.90
23544;DHT22;11950;51.230;4.012;2023-04-24T14:50:23;14.80;99.90
23544;DHT22;11950;51.230;4.012;2023-04-24T14:52:54;14.70;99.90
23544;DHT22;11950;51.230;4.012;2023-04-24T14:55:24;14.60;99.90
23544;DHT22;11950;51.230;4.012;2023-04-24T14:57:50;14.70;99.90
23544;DHT22;11950;51.230;4.012;2023-04-24T15:00:17;14.70;99.90
23544;DHT22;11950;51.230;4.012;2023-04-24T15:02:43;14.70;99.90
23544;DHT22;11950;51.230;4.012;2023-04-24T15:05:10;14.70;99.90
23544;DHT22;11950;51.230;4.012;2023-04-24T15:07:37;14.80;99.90
23544;DHT22;11950;51.230;4.012;2023-04-24T15:10:04;14.80;99.90
23544;DHT22;11950;51.230;4.012;2023-04-24T15:12:31;14.80;99.90
23544;DHT22;11950;51.230;4.012;2023-04-24T15:14:58;14.80;99.90
23544;DHT22;11950;51.230;4.012;2023-04-24T15:17:25;14.70;99.90
23544;DHT22;11950;51.230;4.012;2023-04-24T15:19:52;14.60;99.90
23544;DHT22;11950;51.230;4.012;2023-04-24T15:22:18;14.50;99.90
23544;DHT22;11950;51.230;4.012;2023-04-24T15:24:45;14.50;99.90
23544;DHT22;11950;51.230;4.012;2023-04-24T15:27:11;14.40;99.90
23544;DHT22;11950;51.230;4.012;2023-04-24T15:29:37;14.40;99.90
23544;DHT22;11950;51.230;4.012;2023-04-24T15:32:04;14.40;99.90
23544;DHT22;11950;51.230;4.012;2023-04-24T15:34:30;14.30;99.90
23544;DHT22;11950;51.230;4.012;2023-04-24T15:36:58;14.30;99.90
23544;DHT22;11950;51.230;4.012;2023-04-24T15:39:25;14.20;99.90
23544;DHT22;11950;51.230;4.012;2023-04-24T15:41:51;14.20;99.90
23544;DHT22;11950;51.230;4.012;2023-04-24T15:44:20;14.20;99.90
23544;DHT22;11950;51.230;4.012;2023-04-24T15:46:47;14.20;99.90
23544;DHT22;11950;51.230;4.012;2023-04-24T15:49:13;14.10;99.90
23544;DHT22;11950;51.230;4.012;2023-04-24T15:51:40;14.10;99.90